Ffestiniog, United Kingdom
Current Conditions -  °F | °C
As of 1:50 PM on Thursday 29 Jan 2015 (Local Time) from EGOV Reporting Station
Few Clouds Few Clouds  
Wind Chill: 26°   Ceiling: Unl
Heat Index: 37°   Visibility: 6mi
Dew Point: 30°   Wind: 23mph
Humidity: 75%   Direction: 290°WNW
Pressure: 28.91"   Gusts: NA
Location:  52.96°N, 3.94°W
Report Text: EGOV 291350Z 29020KT 9999 FEW023 03/M01 Q0979 BLU TEMPO SCT020 WHT
Loading
Personal Weather Stations






























Interactive Weather Map New forecast layout! Learn more

10-Day Weather Forecast

Advertisements
Track Severe Weather on mobile